Time;durP1;ratioP1;P1;durP2;ratioP2;P2;SDS_P1;SDS_P2;PMS_P1;PMS_P2;Temp;Humidity;BMP_temperature;BMP_pressure;BME280_temperature;BME280_humidity;BME280_pressure;Samples;Min_cycle;Max_cycle;Signal;HPM_P1;HPM_P2
2022/03/27 00:02:13;;;;;;;21.83;12.93;;;9.30;99.90;;;;;;4928693;29;20211;-70
2022/03/27 00:04:41;;;;;;;24.40;12.20;;;9.40;99.90;;;;;;4928814;29;20202;-70
2022/03/27 00:07:07;;;;;;;23.13;13.50;;;9.30;99.90;;;;;;4922431;29;20253;-70
2022/03/27 00:09:34;;;;;;;26.07;12.40;;;9.20;99.90;;;;;;4905624;29;20208;-70
2022/03/27 00:12:02;;;;;;;24.27;13.43;;;9.20;99.90;;;;;;4930117;29;20196;-70
2022/03/27 00:14:28;;;;;;;22.77;13.27;;;9.10;99.90;;;;;;4930098;29;20207;-70
2022/03/27 00:16:55;;;;;;;26.43;12.33;;;9.10;99.90;;;;;;4925560;29;20218;-70
2022/03/27 00:19:22;;;;;;;22.70;12.70;;;9.00;99.90;;;;;;4927456;29;20193;-70
2022/03/27 00:21:49;;;;;;;22.67;12.33;;;8.90;99.90;;;;;;4924626;29;20207;-70
2022/03/27 00:24:16;;;;;;;22.10;12.00;;;8.80;99.90;;;;;;4928857;29;20714;-70
2022/03/27 00:26:43;;;;;;;23.67;12.63;;;8.70;99.90;;;;;;4908440;29;20248;-70
2022/03/27 00:29:10;;;;;;;24.43;13.00;;;8.60;99.90;;;;;;4921166;29;20581;-70
2022/03/27 00:31:38;;;;;;;22.47;13.10;;;8.60;99.90;;;;;;4923043;29;20195;-70
2022/03/27 00:34:05;;;;;;;25.53;13.17;;;8.80;99.90;;;;;;4927185;29;20586;-70
2022/03/27 00:36:32;;;;;;;24.33;13.03;;;8.70;99.90;;;;;;4930597;29;20223;-70
2022/03/27 00:38:59;;;;;;;21.93;12.77;;;8.80;99.90;;;;;;4920161;29;20213;-70
2022/03/27 00:41:26;;;;;;;23.17;12.37;;;8.70;99.90;;;;;;4927911;29;20210;-70
2022/03/27 00:43:53;;;;;;;22.93;12.83;;;8.50;99.90;;;;;;4922332;29;20229;-70
2022/03/27 00:46:19;;;;;;;21.93;11.80;;;8.40;99.90;;;;;;4918798;29;20225;-70
2022/03/27 00:48:46;;;;;;;21.87;12.50;;;8.50;99.90;;;;;;4920471;29;20642;-70
2022/03/27 00:51:13;;;;;;;19.00;11.40;;;8.40;99.90;;;;;;4926986;29;20668;-70
2022/03/27 00:53:40;;;;;;;22.80;12.13;;;8.40;99.90;;;;;;4930238;29;20576;-69
2022/03/27 00:56:07;;;;;;;20.80;12.53;;;8.30;99.90;;;;;;4932196;29;20256;-70
2022/03/27 00:58:33;;;;;;;21.43;11.47;;;8.30;99.90;;;;;;4929600;29;20211;-69
2022/03/27 01:01:25;;;;;;;22.63;12.93;;;8.40;99.90;;;;;;4920173;29;20200;-70
2022/03/27 01:03:55;;;;;;;20.97;11.93;;;8.30;99.90;;;;;;4925491;29;22225;-70
2022/03/27 01:06:34;;;;;;;21.53;12.00;;;8.20;99.90;;;;;;4929935;29;20718;-70
2022/03/27 01:11:50;;;;;;;25.27;13.03;;;8.00;99.90;;;;;;4924938;29;20692;-70
2022/03/27 01:14:37;;;;;;;23.07;11.93;;;8.00;99.90;;;;;;4917556;29;20213;-70
2022/03/27 01:17:09;;;;;;;20.77;11.87;;;7.90;99.90;;;;;;4925771;29;20232;-70
2022/03/27 01:19:41;;;;;;;22.23;13.00;;;7.80;99.90;;;;;;4921281;29;20821;-70
2022/03/27 01:22:08;;;;;;;22.30;12.20;;;7.70;99.90;;;;;;4922690;29;20204;-70
2022/03/27 01:24:38;;;;;;;24.40;12.03;;;7.60;99.90;;;;;;4911867;29;20239;-70
2022/03/27 01:27:06;;;;;;;24.03;12.70;;;7.60;99.90;;;;;;4921167;29;20272;-70
2022/03/27 01:29:34;;;;;;;23.90;13.03;;;7.80;99.90;;;;;;4931081;29;20200;-69
2022/03/27 01:32:01;;;;;;;22.67;12.20;;;7.80;99.90;;;;;;4926821;29;20199;-70
2022/03/27 01:34:28;;;;;;;25.43;12.47;;;7.80;99.90;;;;;;4916485;29;20200;-70
2022/03/27 01:36:55;;;;;;;22.60;12.43;;;7.90;99.90;;;;;;4921939;29;20705;-70
2022/03/27 01:39:22;;;;;;;22.53;12.77;;;7.80;99.90;;;;;;4927469;29;20203;-70
2022/03/27 01:41:49;;;;;;;22.67;12.27;;;7.70;99.90;;;;;;4924776;29;20206;-70
2022/03/27 01:44:18;;;;;;;27.97;13.73;;;7.70;99.90;;;;;;4929042;29;20728;-70
2022/03/27 01:46:45;;;;;;;22.97;12.47;;;7.60;99.90;;;;;;4919487;29;20780;-70
2022/03/27 01:49:15;;;;;;;23.27;12.43;;;7.60;99.90;;;;;;4919896;29;20745;-70
2022/03/27 01:51:43;;;;;;;26.83;12.27;;;7.80;99.90;;;;;;4926882;29;20287;-70
2022/03/27 01:54:10;;;;;;;24.20;12.47;;;7.80;99.90;;;;;;4917584;29;20199;-70
2022/03/27 01:56:38;;;;;;;20.20;11.40;;;7.80;99.90;;;;;;4924040;29;20704;-70
2022/03/27 01:59:09;;;;;;;20.07;11.07;;;7.60;99.90;;;;;;4929403;29;20207;-70
2022/03/27 02:01:37;;;;;;;19.83;11.20;;;7.50;99.90;;;;;;4925320;29;20215;-70
2022/03/27 02:04:05;;;;;;;19.67;11.00;;;7.40;99.90;;;;;;4914400;29;20594;-70
2022/03/27 02:06:33;;;;;;;18.47;11.37;;;7.30;99.90;;;;;;4918879;29;20223;-70
2022/03/27 02:09:00;;;;;;;20.67;11.33;;;7.30;99.90;;;;;;4920121;29;20219;-70
2022/03/27 02:11:27;;;;;;;24.30;12.47;;;7.30;99.90;;;;;;4917606;29;20206;-70
2022/03/27 02:13:54;;;;;;;23.70;12.37;;;7.30;99.90;;;;;;4922789;29;20205;-70
2022/03/27 02:16:21;;;;;;;24.27;12.80;;;7.50;99.90;;;;;;4929989;29;20229;-70
2022/03/27 02:18:48;;;;;;;24.33;12.67;;;7.50;99.90;;;;;;4922985;29;20314;-70
2022/03/27 02:21:15;;;;;;;24.17;12.30;;;7.60;99.90;;;;;;4923077;29;20229;-70
2022/03/27 02:23:42;;;;;;;21.43;12.17;;;7.70;99.90;;;;;;4928759;29;20581;-70
2022/03/27 02:26:08;;;;;;;23.40;12.00;;;7.50;99.90;;;;;;4927484;29;20591;-70
2022/03/27 02:28:35;;;;;;;22.60;12.10;;;7.40;99.90;;;;;;4923013;29;20195;-70
2022/03/27 02:31:02;;;;;;;20.17;11.53;;;7.30;99.90;;;;;;4925455;29;20203;-70
2022/03/27 02:33:29;;;;;;;21.17;11.53;;;7.20;99.90;;;;;;4925935;29;20260;-70
2022/03/27 02:35:56;;;;;;;20.40;11.60;;;7.10;99.90;;;;;;4920878;29;20227;-70
2022/03/27 02:38:24;;;;;;;25.57;11.77;;;7.00;99.90;;;;;;4920954;29;20196;-70
2022/03/27 02:40:50;;;;;;;20.73;11.23;;;7.00;99.90;;;;;;4920863;29;20194;-70
2022/03/27 02:43:17;;;;;;;22.13;11.67;;;7.20;99.90;;;;;;4928842;29;20226;-70
2022/03/27 02:45:44;;;;;;;21.33;11.63;;;7.10;99.90;;;;;;4921547;29;20219;-70
2022/03/27 02:48:10;;;;;;;23.53;11.90;;;7.20;99.90;;;;;;4913090;29;20608;-70
2022/03/27 02:50:39;;;;;;;26.17;12.13;;;7.30;99.90;;;;;;4921731;29;20199;-70
2022/03/27 02:53:05;;;;;;;18.83;10.70;;;7.30;99.90;;;;;;4929298;29;20290;-70
2022/03/27 02:55:32;;;;;;;21.23;11.30;;;7.10;99.90;;;;;;4926824;29;20226;-70
2022/03/27 02:58:00;;;;;;;20.67;12.03;;;7.00;99.90;;;;;;4923593;29;20713;-70
2022/03/27 03:00:27;;;;;;;21.40;10.90;;;6.90;99.90;;;;;;4928667;29;20191;-71
2022/03/27 03:02:54;;;;;;;24.23;12.03;;;6.80;99.90;;;;;;4920531;29;20214;-70
2022/03/27 03:05:22;;;;;;;22.07;12.03;;;6.80;99.90;;;;;;4926995;29;20300;-70
2022/03/27 03:07:50;;;;;;;21.80;11.53;;;6.70;99.90;;;;;;4912825;29;20289;-70
2022/03/27 03:10:17;;;;;;;22.37;11.50;;;6.70;99.90;;;;;;4926096;29;20208;-70
2022/03/27 03:12:44;;;;;;;24.50;12.00;;;6.70;99.90;;;;;;4921058;29;20230;-70
2022/03/27 03:15:12;;;;;;;22.37;11.87;;;6.70;99.90;;;;;;4915426;29;20213;-70
2022/03/27 03:17:38;;;;;;;21.63;12.30;;;6.60;99.90;;;;;;4929216;29;20200;-70
2022/03/27 03:20:06;;;;;;;21.50;11.00;;;6.50;99.90;;;;;;4926646;29;20669;-70
2022/03/27 03:22:35;;;;;;;22.80;12.60;;;6.60;99.90;;;;;;4907229;29;20214;-70
2022/03/27 03:25:03;;;;;;;23.53;12.27;;;6.60;99.90;;;;;;4923125;29;20709;-70
2022/03/27 03:27:30;;;;;;;22.93;12.13;;;6.80;99.90;;;;;;4921263;29;20210;-70
2022/03/27 03:29:57;;;;;;;24.63;12.10;;;6.80;99.90;;;;;;4927507;29;20215;-70
2022/03/27 03:32:24;;;;;;;23.00;11.80;;;6.90;99.90;;;;;;4925412;29;20199;-70
2022/03/27 03:34:51;;;;;;;21.83;11.70;;;6.90;99.90;;;;;;4925232;29;20199;-70
2022/03/27 03:37:18;;;;;;;21.50;11.60;;;6.80;99.90;;;;;;4927083;29;20234;-70
2022/03/27 03:39:47;;;;;;;23.57;11.80;;;6.70;99.90;;;;;;4925120;29;20207;-70
2022/03/27 03:42:14;;;;;;;20.70;11.90;;;6.70;99.90;;;;;;4925415;29;20218;-70
2022/03/27 03:44:41;;;;;;;23.93;12.03;;;6.60;99.90;;;;;;4914606;29;20316;-70
2022/03/27 03:47:09;;;;;;;21.83;11.33;;;6.60;99.90;;;;;;4936461;28;20273;-70
2022/03/27 03:49:37;;;;;;;22.20;11.50;;;6.50;99.90;;;;;;4915972;29;20593;-70
2022/03/27 03:52:06;;;;;;;25.20;12.83;;;6.40;99.90;;;;;;4926583;29;20573;-70
2022/03/27 03:54:35;;;;;;;22.37;12.70;;;6.60;99.90;;;;;;4923631;29;20199;-70
2022/03/27 03:57:05;;;;;;;22.77;12.03;;;6.60;99.90;;;;;;4932117;29;20230;-70
2022/03/27 03:59:33;;;;;;;24.77;12.03;;;6.50;99.90;;;;;;4925763;29;20206;-70
2022/03/27 04:02:00;;;;;;;24.47;12.47;;;6.70;99.90;;;;;;4921888;29;20199;-70
2022/03/27 04:04:28;;;;;;;22.57;11.67;;;6.80;99.90;;;;;;4924516;29;20320;-70
2022/03/27 04:06:55;;;;;;;23.57;11.73;;;6.80;99.90;;;;;;4921389;29;20269;-70
2022/03/27 04:09:22;;;;;;;23.17;11.93;;;6.80;99.90;;;;;;4914040;29;20247;-70
2022/03/27 04:11:49;;;;;;;22.73;11.80;;;6.80;99.90;;;;;;4923114;29;20203;-70
2022/03/27 04:14:15;;;;;;;20.13;12.33;;;6.70;99.90;;;;;;4930957;29;20582;-70
2022/03/27 04:16:42;;;;;;;23.77;11.77;;;6.60;99.90;;;;;;4931807;29;20226;-70
2022/03/27 04:19:09;;;;;;;23.90;11.33;;;6.60;99.90;;;;;;4925980;29;20229;-71
2022/03/27 04:21:36;;;;;;;20.50;11.77;;;6.50;99.90;;;;;;4919285;29;20305;-71
2022/03/27 04:24:03;;;;;;;23.83;11.80;;;6.50;99.90;;;;;;4920807;29;20220;-70
2022/03/27 04:26:31;;;;;;;22.83;11.70;;;6.50;99.90;;;;;;4928046;29;20219;-70
2022/03/27 04:28:58;;;;;;;22.80;11.87;;;6.40;99.90;;;;;;4924855;29;20194;-70
2022/03/27 04:31:25;;;;;;;23.60;11.20;;;6.50;99.90;;;;;;4919463;29;20201;-71
2022/03/27 04:33:52;;;;;;;22.93;11.90;;;6.70;99.90;;;;;;4905302;29;20205;-71
2022/03/27 04:36:19;;;;;;;23.33;12.00;;;6.60;99.90;;;;;;4921442;29;20740;-70
2022/03/27 04:38:46;;;;;;;22.10;11.43;;;6.60;99.90;;;;;;4925244;29;20356;-70
2022/03/27 04:41:12;;;;;;;18.23;10.63;;;6.60;99.90;;;;;;4927329;29;20221;-70
2022/03/27 04:43:39;;;;;;;24.53;11.37;;;6.70;99.90;;;;;;4919852;29;20720;-69
2022/03/27 04:46:07;;;;;;;30.43;12.47;;;6.80;99.90;;;;;;4927508;29;20226;-69
2022/03/27 04:48:34;;;;;;;24.10;12.07;;;6.70;99.90;;;;;;4916505;29;20201;-69
2022/03/27 04:51:01;;;;;;;24.00;12.50;;;6.70;99.90;;;;;;4923611;29;20201;-70
2022/03/27 04:53:28;;;;;;;22.50;11.43;;;6.80;99.90;;;;;;4924121;29;20233;-69
2022/03/27 04:55:54;;;;;;;21.13;11.40;;;6.80;99.90;;;;;;4930789;29;20215;-69
2022/03/27 04:58:24;;;;;;;22.53;12.27;;;6.80;99.90;;;;;;4919615;29;20204;-71
2022/03/27 05:00:51;;;;;;;23.20;11.63;;;6.70;99.90;;;;;;4925490;29;20217;-71
2022/03/27 05:03:18;;;;;;;22.70;11.77;;;6.70;99.90;;;;;;4921275;29;20198;-70
2022/03/27 05:05:45;;;;;;;22.87;11.77;;;6.70;99.90;;;;;;4909379;29;20307;-71
2022/03/27 05:08:12;;;;;;;24.20;11.97;;;6.70;99.90;;;;;;4919043;29;20221;-70
2022/03/27 05:10:39;;;;;;;21.10;11.23;;;6.70;99.90;;;;;;4929633;29;20205;-71
2022/03/27 05:13:07;;;;;;;29.00;11.90;;;6.70;99.90;;;;;;4925152;29;20739;-70
2022/03/27 05:15:34;;;;;;;27.20;11.60;;;6.70;99.90;;;;;;4917884;29;20242;-70
2022/03/27 05:18:01;;;;;;;24.47;10.90;;;6.70;99.90;;;;;;4927381;29;20233;-71
2022/03/27 05:20:30;;;;;;;27.57;12.20;;;6.60;99.90;;;;;;4918411;29;20670;-71
2022/03/27 05:22:59;;;;;;;20.30;11.30;;;6.50;99.90;;;;;;4924162;29;20205;-71
2022/03/27 05:25:26;;;;;;;21.77;11.70;;;6.40;99.90;;;;;;4922669;29;20222;-71
2022/03/27 05:27:55;;;;;;;22.70;12.17;;;6.40;99.90;;;;;;4923127;29;20204;-71
2022/03/27 05:30:23;;;;;;;22.27;11.60;;;6.30;99.90;;;;;;4923824;29;20200;-71
2022/03/27 05:32:51;;;;;;;21.63;11.40;;;6.40;99.90;;;;;;4921225;29;20549;-70
2022/03/27 05:35:18;;;;;;;22.10;11.53;;;6.50;99.90;;;;;;4924250;29;20218;-71
2022/03/27 05:37:47;;;;;;;29.10;13.50;;;6.50;99.90;;;;;;4920027;29;20203;-71
2022/03/27 05:40:18;;;;;;;23.10;12.17;;;6.60;99.90;;;;;;4927266;29;20577;-71
2022/03/27 05:42:45;;;;;;;24.93;11.90;;;6.60;99.90;;;;;;4917154;29;20204;-71
2022/03/27 05:45:13;;;;;;;21.90;12.87;;;6.80;99.90;;;;;;4922534;29;20227;-71
2022/03/27 05:47:41;;;;;;;24.80;12.43;;;6.80;99.90;;;;;;4925537;29;22286;-71
2022/03/27 05:50:10;;;;;;;27.17;13.00;;;6.80;99.90;;;;;;4925921;29;20209;-71
2022/03/27 05:52:38;;;;;;;27.97;13.77;;;6.90;99.90;;;;;;4919683;29;20213;-71
2022/03/27 05:55:05;;;;;;;28.07;12.90;;;7.00;99.90;;;;;;4916294;29;20625;-70
2022/03/27 05:57:32;;;;;;;26.87;13.43;;;7.00;99.90;;;;;;4918490;29;20211;-71
2022/03/27 05:59:58;;;;;;;24.27;13.17;;;7.00;99.90;;;;;;4923779;29;20212;-71
2022/03/27 06:02:25;;;;;;;28.40;12.93;;;7.10;99.90;;;;;;4926271;29;20206;-70
2022/03/27 06:04:52;;;;;;;23.37;11.97;;;7.10;99.90;;;;;;4921491;29;20714;-71
2022/03/27 06:07:18;;;;;;;25.83;12.10;;;7.10;99.90;;;;;;4930594;29;20237;-71
2022/03/27 06:09:48;;;;;;;25.90;12.17;;;7.20;99.90;;;;;;4918044;29;20195;-70
2022/03/27 06:12:17;;;;;;;30.10;12.20;;;7.30;99.90;;;;;;4925494;29;20246;-70
2022/03/27 06:14:44;;;;;;;28.20;12.53;;;7.40;99.90;;;;;;4930594;29;20796;-68
2022/03/27 06:17:13;;;;;;;28.20;12.43;;;7.50;99.90;;;;;;4922477;29;20734;-70
2022/03/27 06:19:42;;;;;;;22.83;12.43;;;7.50;99.90;;;;;;4919299;29;20686;-70
2022/03/27 06:22:09;;;;;;;25.17;12.63;;;7.50;99.90;;;;;;4917041;29;20568;-70
2022/03/27 06:24:36;;;;;;;25.90;13.07;;;7.50;99.90;;;;;;4923636;29;20474;-70
2022/03/27 06:27:03;;;;;;;31.10;12.73;;;7.60;99.90;;;;;;4926339;29;20222;-70
2022/03/27 06:29:30;;;;;;;24.63;11.67;;;7.80;99.90;;;;;;4929730;29;20622;-70
2022/03/27 06:31:57;;;;;;;23.70;12.17;;;7.80;99.90;;;;;;4931111;29;20203;-70
2022/03/27 06:34:26;;;;;;;27.33;13.07;;;7.70;99.90;;;;;;4922532;29;20217;-71
2022/03/27 06:36:52;;;;;;;25.30;13.27;;;7.70;99.90;;;;;;4922930;29;20219;-70
2022/03/27 06:39:19;;;;;;;26.57;12.80;;;7.80;99.90;;;;;;4916089;29;20214;-70
2022/03/27 06:41:46;;;;;;;25.40;13.87;;;7.80;99.90;;;;;;4926289;29;20209;-70
2022/03/27 06:44:14;;;;;;;26.17;12.80;;;7.80;99.90;;;;;;4922990;29;20310;-70
2022/03/27 06:46:40;;;;;;;24.83;13.87;;;7.80;99.90;;;;;;4924339;29;20234;-70
2022/03/27 06:49:07;;;;;;;23.60;12.30;;;8.00;99.90;;;;;;4920423;29;20208;-70
2022/03/27 06:51:34;;;;;;;24.03;12.77;;;8.10;99.90;;;;;;4922145;29;20201;-70
2022/03/27 06:54:00;;;;;;;26.87;13.40;;;8.20;99.90;;;;;;4925849;29;20199;-71
2022/03/27 06:56:27;;;;;;;25.73;12.47;;;8.50;99.90;;;;;;4915909;29;20215;-70
2022/03/27 06:58:54;;;;;;;24.63;12.10;;;8.70;99.90;;;;;;4934379;29;20200;-70
2022/03/27 07:04:07;;;;;;;25.20;12.17;;;8.80;99.90;;;;;;4924425;29;20261;-70
2022/03/27 07:06:33;;;;;;;25.73;13.23;;;8.90;99.90;;;;;;4915595;29;20233;-69
2022/03/27 07:09:00;;;;;;;25.03;11.80;;;8.90;99.90;;;;;;4928383;29;20197;-70
2022/03/27 07:11:27;;;;;;;26.47;12.87;;;9.00;99.90;;;;;;4923416;29;20212;-70
2022/03/27 07:13:54;;;;;;;24.83;12.17;;;9.20;99.90;;;;;;4911608;29;20199;-70
2022/03/27 07:16:20;;;;;;;26.27;12.70;;;9.40;99.90;;;;;;4934742;29;20306;-70
2022/03/27 07:18:49;;;;;;;22.80;12.60;;;9.60;99.90;;;;;;4917503;29;20271;-70
2022/03/27 07:21:18;;;;;;;22.33;12.37;;;9.70;99.90;;;;;;4927878;29;20213;-70
2022/03/27 07:23:45;;;;;;;21.40;13.10;;;9.80;99.90;;;;;;4932074;29;20204;-70
2022/03/27 07:26:11;;;;;;;28.00;13.47;;;9.90;99.90;;;;;;4929026;29;20239;-70
2022/03/27 07:28:38;;;;;;;23.20;12.63;;;10.00;99.90;;;;;;4927239;29;20205;-71
2022/03/27 07:31:05;;;;;;;23.13;12.60;;;10.20;99.90;;;;;;4928038;29;20200;-71
2022/03/27 07:33:33;;;;;;;24.53;12.13;;;10.40;99.90;;;;;;4923361;29;20200;-71
2022/03/27 07:36:00;;;;;;;21.97;12.20;;;10.60;99.90;;;;;;4914391;29;20226;-71
2022/03/27 07:38:26;;;;;;;20.90;11.97;;;10.80;99.90;;;;;;4929439;29;20214;-71
2022/03/27 07:40:59;;;;;;;22.03;12.17;;;11.00;99.90;;;;;;4916790;29;20209;-71
2022/03/27 07:43:26;;;;;;;20.50;11.50;;;11.20;99.90;;;;;;4928283;29;20572;-70
2022/03/27 07:45:53;;;;;;;25.80;13.37;;;11.30;99.90;;;;;;4915050;29;20223;-77
2022/03/27 07:48:20;;;;;;;24.87;12.67;;;11.50;99.90;;;;;;4930463;29;20199;-79
2022/03/27 07:50:54;;;;;;;23.23;12.13;;;11.70;99.90;;;;;;4928318;29;20208;-77
2022/03/27 07:53:21;;;;;;;22.20;12.50;;;11.90;99.90;;;;;;4929939;29;20195;-79
2022/03/27 07:55:48;;;;;;;23.07;12.10;;;12.00;99.90;;;;;;4930541;29;20709;-79
2022/03/27 07:58:15;;;;;;;20.40;11.67;;;12.10;99.90;;;;;;4929583;29;20664;-77
2022/03/27 08:00:42;;;;;;;21.63;12.40;;;12.20;99.90;;;;;;4922004;29;20583;-78
2022/03/27 08:03:09;;;;;;;20.87;11.90;;;12.30;99.90;;;;;;4924144;29;20208;-79
2022/03/27 08:05:36;;;;;;;21.97;12.83;;;12.40;99.90;;;;;;4922759;29;20230;-77
2022/03/27 08:08:03;;;;;;;23.27;11.57;;;12.50;99.90;;;;;;4925862;29;20680;-78
2022/03/27 08:10:30;;;;;;;21.73;11.93;;;12.60;99.90;;;;;;4931359;29;20202;-76
2022/03/27 08:12:57;;;;;;;20.80;12.53;;;12.80;99.90;;;;;;4927019;29;20213;-73
2022/03/27 08:15:24;;;;;;;19.63;11.40;;;12.90;99.90;;;;;;4928932;29;20230;-73
2022/03/27 08:17:54;;;;;;;19.80;11.07;;;13.10;99.90;;;;;;4930348;29;20233;-73
2022/03/27 08:20:23;;;;;;;21.53;11.87;;;13.40;99.90;;;;;;4926956;29;20286;-72
2022/03/27 08:22:50;;;;;;;21.37;12.27;;;13.60;99.90;;;;;;4915788;29;20210;-72
2022/03/27 08:26:55;;;;;;;19.77;12.00;;;13.80;99.90;;;;;;4929724;29;20316;-72
2022/03/27 08:28:04;;;;;;;21.03;12.03;;;13.90;99.90;;;;;;4929955;29;20202;-71
2022/03/27 08:30:31;;;;;;;20.80;11.70;;;14.10;99.90;;;;;;4931371;29;20220;-71
2022/03/27 08:32:57;;;;;;;21.07;12.47;;;14.30;99.90;;;;;;4917502;29;20196;-70
2022/03/27 08:35:24;;;;;;;19.93;12.23;;;14.50;99.90;;;;;;4926030;29;20621;-70
2022/03/27 08:37:51;;;;;;;21.27;12.57;;;14.70;99.90;;;;;;4926353;29;20217;-71
2022/03/27 08:40:18;;;;;;;21.10;12.00;;;14.90;99.90;;;;;;4918589;29;20205;-69
2022/03/27 08:42:45;;;;;;;20.13;11.57;;;15.20;99.90;;;;;;4923273;29;20202;-70
2022/03/27 08:45:12;;;;;;;24.13;12.30;;;15.30;99.90;;;;;;4928230;29;20279;-69
2022/03/27 08:47:40;;;;;;;23.40;12.40;;;15.50;99.90;;;;;;4927626;29;20202;-70
2022/03/27 08:50:27;;;;;;;20.60;11.67;;;15.70;99.90;;;;;;4922590;29;20589;-70
2022/03/27 08:53:04;;;;;;;19.73;11.83;;;15.90;99.90;;;;;;4919778;29;20206;-70
2022/03/27 08:55:46;;;;;;;19.77;11.27;;;16.10;99.90;;;;;;4924080;29;20713;-70
2022/03/27 08:58:14;;;;;;;22.53;11.83;;;16.40;99.90;;;;;;4922814;29;20207;-70
2022/03/27 09:00:41;;;;;;;20.27;11.90;;;16.60;99.90;;;;;;4919756;29;20254;-70
2022/03/27 09:03:09;;;;;;;20.70;11.70;;;16.70;99.90;;;;;;4923502;29;20206;-70
2022/03/27 09:05:37;;;;;;;22.30;11.83;;;16.70;99.90;;;;;;4919929;29;20227;-70
2022/03/27 09:08:10;;;;;;;22.13;11.40;;;16.70;99.90;;;;;;4919017;29;20207;-74
2022/03/27 09:10:39;;;;;;;19.47;11.93;;;16.80;99.90;;;;;;4921213;29;20196;-74
2022/03/27 09:13:10;;;;;;;20.47;10.93;;;17.00;99.90;;;;;;4926105;29;20200;-74
2022/03/27 09:15:37;;;;;;;22.17;11.77;;;17.20;99.90;;;;;;4922960;29;20694;-77
2022/03/27 09:18:05;;;;;;;22.40;12.43;;;17.40;99.90;;;;;;4922891;29;20581;-73
2022/03/27 09:20:35;;;;;;;20.07;12.13;;;17.20;99.90;;;;;;4928363;29;20204;-73
2022/03/27 09:23:26;;;;;;;18.63;11.73;;;17.30;99.90;;;;;;4925767;29;20210;-73
2022/03/27 09:26:04;;;;;;;23.67;11.63;;;17.40;99.90;;;;;;4917780;29;20254;-73
2022/03/27 09:28:46;;;;;;;21.07;11.97;;;17.40;99.90;;;;;;4929485;29;20210;-72
2022/03/27 09:31:18;;;;;;;22.00;12.13;;;17.50;99.90;;;;;;4919119;29;20196;-73
2022/03/27 09:34:00;;;;;;;20.73;11.77;;;17.50;99.90;;;;;;4908308;29;20206;-72
2022/03/27 09:36:26;;;;;;;19.43;11.57;;;17.60;99.90;;;;;;4924197;29;20222;-73
2022/03/27 09:39:16;;;;;;;18.90;11.60;;;17.80;99.90;;;;;;4916791;29;20479;-73
2022/03/27 09:41:54;;;;;;;20.20;11.70;;;17.90;99.90;;;;;;4900340;29;20472;-73
2022/03/27 09:44:30;;;;;;;20.13;11.87;;;18.00;99.90;;;;;;4930109;29;20574;-71
2022/03/27 09:47:04;;;;;;;21.13;11.97;;;18.10;99.90;;;;;;4919333;29;20230;-71
2022/03/27 09:49:30;;;;;;;23.77;12.00;;;18.20;99.90;;;;;;4916905;29;20259;-72
2022/03/27 09:52:10;;;;;;;21.37;12.67;;;18.10;99.90;;;;;;4924888;29;20683;-72
2022/03/27 09:55:09;;;;;;;19.87;11.70;;;18.20;99.90;;;;;;4926117;29;20210;-72
2022/03/27 09:57:38;;;;;;;19.97;11.37;;;18.30;99.90;;;;;;4919871;29;20258;-72
2022/03/27 10:00:15;;;;;;;18.67;11.17;;;18.50;99.90;;;;;;4913699;29;20199;-72
2022/03/27 10:02:44;;;;;;;22.50;11.57;;;18.60;99.90;;;;;;4920293;29;20634;-72
2022/03/27 10:05:13;;;;;;;19.57;11.50;;;18.50;99.90;;;;;;4920192;29;20740;-72
2022/03/27 10:07:43;;;;;;;21.47;11.70;;;18.50;99.90;;;;;;4921675;29;20199;-72
2022/03/27 10:10:12;;;;;;;20.27;11.53;;;18.60;99.90;;;;;;4899887;29;20204;-72
2022/03/27 10:12:41;;;;;;;17.43;11.47;;;18.80;99.90;;;;;;4928274;29;20199;-72
2022/03/27 10:15:13;;;;;;;18.60;10.80;;;18.80;99.90;;;;;;4916985;29;20203;-72
2022/03/27 10:17:45;;;;;;;19.17;10.67;;;18.90;99.90;;;;;;4922410;29;20221;-72
2022/03/27 10:20:17;;;;;;;19.33;11.03;;;18.90;99.90;;;;;;4922647;29;20594;-71
2022/03/27 10:22:57;;;;;;;18.10;11.00;;;19.00;99.90;;;;;;4928640;29;20195;-71
2022/03/27 10:25:29;;;;;;;20.10;11.13;;;19.20;99.90;;;;;;4917108;29;20230;-72
2022/03/27 10:27:56;;;;;;;23.33;11.47;;;19.30;99.90;;;;;;4930483;29;20708;-72
2022/03/27 10:30:24;;;;;;;18.13;10.67;;;19.40;99.90;;;;;;4933275;29;20199;-72
2022/03/27 10:32:51;;;;;;;17.77;10.53;;;19.40;99.90;;;;;;4929032;29;20518;-72
2022/03/27 10:35:21;;;;;;;19.07;10.30;;;19.40;99.90;;;;;;4931209;29;20226;-72
2022/03/27 10:37:59;;;;;;;16.20;10.63;;;19.50;99.90;;;;;;4930829;29;20228;-72
2022/03/27 10:40:45;;;;;;;19.63;10.57;;;19.40;99.90;;;;;;4931069;29;20580;-70
2022/03/27 10:43:25;;;;;;;19.97;10.40;;;19.40;99.90;;;;;;4926300;29;20258;-70
2022/03/27 10:46:24;;;;;;;16.47;10.13;;;19.50;99.90;;;;;;4929230;29;20226;-70
2022/03/27 10:48:53;;;;;;;20.17;10.23;;;19.60;99.90;;;;;;4925061;29;20613;-71
2022/03/27 10:51:28;;;;;;;18.53;10.50;;;19.70;99.90;;;;;;4930907;29;20209;-69
2022/03/27 10:54:11;;;;;;;18.83;10.50;;;19.70;99.90;;;;;;4924188;29;20672;-69
2022/03/27 10:56:43;;;;;;;14.87;10.03;;;19.40;99.90;;;;;;4922632;29;20225;-71
2022/03/27 10:59:24;;;;;;;15.57;9.03;;;19.40;99.90;;;;;;4921850;29;20554;-70
2022/03/27 11:01:56;;;;;;;16.07;10.33;;;19.60;99.90;;;;;;4911917;29;20195;-70
2022/03/27 11:04:41;;;;;;;16.70;10.37;;;19.80;99.90;;;;;;4915573;29;20206;-69
2022/03/27 11:07:21;;;;;;;17.00;10.10;;;20.10;99.90;;;;;;4928629;29;20227;-69
2022/03/27 11:09:48;;;;;;;19.63;9.83;;;20.00;99.90;;;;;;4934845;29;20202;-69
2022/03/27 11:12:24;;;;;;;16.57;9.67;;;20.10;99.90;;;;;;4929406;29;20203;-69
2022/03/27 11:15:01;;;;;;;18.23;9.83;;;20.20;99.90;;;;;;4930311;29;20653;-69
2022/03/27 11:17:30;;;;;;;13.50;8.33;;;20.20;99.90;;;;;;4920712;29;20206;-69
2022/03/27 11:19:58;;;;;;;14.80;8.73;;;20.40;99.90;;;;;;4926408;29;20207;-70
2022/03/27 11:22:42;;;;;;;14.18;8.93;;;20.40;99.90;;;;;;4924620;29;20646;-69
2022/03/27 11:25:31;;;;;;;14.80;8.00;;;20.40;99.90;;;;;;4912095;29;20199;-69
2022/03/27 11:28:05;;;;;;;14.60;8.20;;;20.40;99.90;;;;;;4930727;29;20202;-69
2022/03/27 11:30:58;;;;;;;13.13;7.72;;;20.50;99.90;;;;;;4928760;29;20203;-69
2022/03/27 11:33:29;;;;;;;14.13;8.27;;;20.60;99.90;;;;;;4911183;29;20577;-69
2022/03/27 11:36:01;;;;;;;13.15;7.13;;;20.40;99.90;;;;;;4912988;29;20222;-69
2022/03/27 11:38:33;;;;;;;11.85;6.80;;;20.40;99.90;;;;;;4928371;29;20203;-70
2022/03/27 11:41:29;;;;;;;11.57;7.03;;;20.40;99.90;;;;;;4925112;29;20202;-69
2022/03/27 11:44:15;;;;;;;11.10;6.82;;;20.50;99.90;;;;;;4926946;29;20203;-70
2022/03/27 11:46:44;;;;;;;6.47;4.78;;;20.70;99.90;;;;;;4923438;29;20725;-69
2022/03/27 11:49:11;;;;;;;11.13;6.60;;;20.80;99.90;;;;;;4926750;29;20958;-69
2022/03/27 11:51:38;;;;;;;9.90;6.47;;;20.80;99.90;;;;;;4929796;29;20191;-69
2022/03/27 11:54:20;;;;;;;9.77;6.03;;;20.90;99.90;;;;;;4931013;29;20662;-69
2022/03/27 11:56:53;;;;;;;12.27;6.57;;;21.00;99.90;;;;;;4928364;29;20222;-69
2022/03/27 11:59:20;;;;;;;14.27;7.13;;;21.00;99.90;;;;;;4916288;29;20585;-69
2022/03/27 12:01:52;;;;;;;10.38;6.47;;;21.10;99.90;;;;;;4923624;29;20277;-69
2022/03/27 12:04:19;;;;;;;9.75;5.85;;;21.10;99.90;;;;;;4923845;29;20267;-69
2022/03/27 12:06:46;;;;;;;14.95;7.80;;;20.90;99.90;;;;;;4926291;29;20235;-70
2022/03/27 12:09:24;;;;;;;15.20;7.47;;;21.00;99.90;;;;;;4931242;29;20225;-69
2022/03/27 12:12:10;;;;;;;9.98;6.47;;;21.20;99.90;;;;;;4928830;29;20570;-69
2022/03/27 12:14:54;;;;;;;11.40;6.47;;;21.40;99.90;;;;;;4930196;29;20194;-70
2022/03/27 12:17:22;;;;;;;9.82;5.95;;;21.50;99.90;;;;;;4926927;29;20242;-69
2022/03/27 12:19:58;;;;;;;8.45;5.70;;;21.50;99.90;;;;;;4926524;29;20580;-70
2022/03/27 12:22:41;;;;;;;8.65;5.60;;;21.50;99.70;;;;;;4925316;29;20205;-70
2022/03/27 12:25:21;;;;;;;10.90;6.00;;;21.30;99.60;;;;;;4924384;29;20210;-69
2022/03/27 12:30:46;;;;;;;10.27;5.63;;;21.40;99.90;;;;;;4921090;29;20202;-70
2022/03/27 12:33:13;;;;;;;8.38;5.10;;;21.40;99.90;;;;;;4930511;29;20290;-69
2022/03/27 12:35:40;;;;;;;12.07;6.25;;;21.40;99.90;;;;;;4924593;29;20222;-69
2022/03/27 12:38:06;;;;;;;10.95;6.93;;;21.20;99.90;;;;;;4917411;29;20545;-70
2022/03/27 12:40:44;;;;;;;12.90;7.22;;;21.20;99.90;;;;;;4923288;29;20634;-69
2022/03/27 12:43:15;;;;;;;11.75;7.32;;;21.20;99.90;;;;;;4924347;29;20711;-69
2022/03/27 12:45:43;;;;;;;13.98;7.47;;;21.30;99.90;;;;;;4920103;29;20702;-70
2022/03/27 12:48:17;;;;;;;15.32;7.68;;;21.40;99.90;;;;;;4928585;29;20196;-69
2022/03/27 12:50:46;;;;;;;12.05;6.07;;;21.50;99.90;;;;;;4923608;29;20210;-70
2022/03/27 12:53:27;;;;;;;10.40;5.55;;;21.50;99.90;;;;;;4921506;29;20519;-69
2022/03/27 12:56:09;;;;;;;7.93;5.18;;;21.50;99.90;;;;;;4921623;29;20218;-69